sensor_id;sensor_type;location;lat;lon;timestamp;P1;durP1;ratioP1;P2;durP2;ratioP2
31384;SDS011;18016;49.788;8.742;2023-04-24T00:02:05;3.93;;;1.27;;
31384;SDS011;18016;49.788;8.742;2023-04-24T00:04:31;3.17;;;1.20;;
31384;SDS011;18016;49.788;8.742;2023-04-24T00:06:56;3.95;;;1.25;;
31384;SDS011;18016;49.788;8.742;2023-04-24T00:09:24;5.22;;;1.30;;
31384;SDS011;18016;49.788;8.742;2023-04-24T00:11:50;6.32;;;1.15;;
31384;SDS011;18016;49.788;8.742;2023-04-24T00:14:15;2.33;;;0.90;;
31384;SDS011;18016;49.788;8.742;2023-04-24T00:16:40;2.78;;;1.35;;
31384;SDS011;18016;49.788;8.742;2023-04-24T00:19:06;6.07;;;1.67;;
31384;SDS011;18016;49.788;8.742;2023-04-24T00:21:31;4.15;;;1.38;;
31384;SDS011;18016;49.788;8.742;2023-04-24T00:23:57;3.17;;;1.40;;
31384;SDS011;18016;49.788;8.742;2023-04-24T00:26:23;2.63;;;1.20;;
31384;SDS011;18016;49.788;8.742;2023-04-24T00:28:48;2.25;;;1.10;;
31384;SDS011;18016;49.788;8.742;2023-04-24T00:31:13;2.38;;;1.20;;
31384;SDS011;18016;49.788;8.742;2023-04-24T00:33:38;2.80;;;1.75;;
31384;SDS011;18016;49.788;8.742;2023-04-24T00:36:03;3.00;;;1.20;;
31384;SDS011;18016;49.788;8.742;2023-04-24T00:38:29;1.88;;;1.20;;
31384;SDS011;18016;49.788;8.742;2023-04-24T00:40:54;1.90;;;1.23;;
31384;SDS011;18016;49.788;8.742;2023-04-24T00:43:19;5.10;;;1.50;;
31384;SDS011;18016;49.788;8.742;2023-04-24T00:45:44;3.73;;;1.00;;
31384;SDS011;18016;49.788;8.742;2023-04-24T00:48:10;1.40;;;1.30;;
31384;SDS011;18016;49.788;8.742;2023-04-24T00:50:36;2.55;;;1.00;;
31384;SDS011;18016;49.788;8.742;2023-04-24T00:53:02;2.30;;;1.00;;
31384;SDS011;18016;49.788;8.742;2023-04-24T00:55:28;2.07;;;1.23;;
31384;SDS011;18016;49.788;8.742;2023-04-24T00:57:53;2.00;;;1.13;;
31384;SDS011;18016;49.788;8.742;2023-04-24T01:00:18;1.95;;;1.20;;
31384;SDS011;18016;49.788;8.742;2023-04-24T01:02:44;4.10;;;1.42;;
31384;SDS011;18016;49.788;8.742;2023-04-24T01:05:10;3.90;;;1.17;;
31384;SDS011;18016;49.788;8.742;2023-04-24T01:07:36;3.72;;;1.25;;
31384;SDS011;18016;49.788;8.742;2023-04-24T01:10:02;5.85;;;1.42;;
31384;SDS011;18016;49.788;8.742;2023-04-24T01:12:28;4.03;;;1.50;;
31384;SDS011;18016;49.788;8.742;2023-04-24T01:14:54;4.28;;;1.50;;
31384;SDS011;18016;49.788;8.742;2023-04-24T01:17:19;5.57;;;1.48;;
31384;SDS011;18016;49.788;8.742;2023-04-24T01:19:45;3.65;;;1.23;;
31384;SDS011;18016;49.788;8.742;2023-04-24T01:22:11;2.35;;;1.42;;
31384;SDS011;18016;49.788;8.742;2023-04-24T01:24:36;2.28;;;1.10;;
31384;SDS011;18016;49.788;8.742;2023-04-24T01:27:01;4.43;;;1.60;;
31384;SDS011;18016;49.788;8.742;2023-04-24T01:29:27;3.33;;;1.40;;
31384;SDS011;18016;49.788;8.742;2023-04-24T01:31:52;2.45;;;1.50;;
31384;SDS011;18016;49.788;8.742;2023-04-24T01:34:17;4.03;;;1.23;;
31384;SDS011;18016;49.788;8.742;2023-04-24T01:36:43;2.42;;;1.70;;
31384;SDS011;18016;49.788;8.742;2023-04-24T01:39:11;2.28;;;1.25;;
31384;SDS011;18016;49.788;8.742;2023-04-24T01:41:36;4.07;;;1.20;;
31384;SDS011;18016;49.788;8.742;2023-04-24T01:44:01;3.63;;;1.23;;
31384;SDS011;18016;49.788;8.742;2023-04-24T01:46:27;2.05;;;1.30;;
31384;SDS011;18016;49.788;8.742;2023-04-24T01:48:52;4.07;;;1.40;;
31384;SDS011;18016;49.788;8.742;2023-04-24T01:51:17;6.07;;;1.50;;
31384;SDS011;18016;49.788;8.742;2023-04-24T01:53:43;4.55;;;1.23;;
31384;SDS011;18016;49.788;8.742;2023-04-24T01:56:08;4.55;;;1.05;;
31384;SDS011;18016;49.788;8.742;2023-04-24T01:58:33;2.33;;;1.25;;
31384;SDS011;18016;49.788;8.742;2023-04-24T02:00:59;4.50;;;1.27;;
31384;SDS011;18016;49.788;8.742;2023-04-24T02:03:25;3.53;;;1.40;;
31384;SDS011;18016;49.788;8.742;2023-04-24T02:05:51;5.53;;;1.40;;
31384;SDS011;18016;49.788;8.742;2023-04-24T02:08:16;3.53;;;1.45;;
31384;SDS011;18016;49.788;8.742;2023-04-24T02:10:41;2.17;;;1.30;;
31384;SDS011;18016;49.788;8.742;2023-04-24T02:13:07;3.05;;;1.52;;
31384;SDS011;18016;49.788;8.742;2023-04-24T02:15:32;3.22;;;1.50;;
31384;SDS011;18016;49.788;8.742;2023-04-24T02:17:57;2.08;;;1.40;;
31384;SDS011;18016;49.788;8.742;2023-04-24T02:20:23;2.85;;;1.25;;
31384;SDS011;18016;49.788;8.742;2023-04-24T02:22:48;3.65;;;1.40;;
31384;SDS011;18016;49.788;8.742;2023-04-24T02:25:13;3.97;;;1.67;;
31384;SDS011;18016;49.788;8.742;2023-04-24T02:27:38;5.13;;;1.40;;
31384;SDS011;18016;49.788;8.742;2023-04-24T02:30:04;2.72;;;1.67;;
31384;SDS011;18016;49.788;8.742;2023-04-24T02:32:29;3.28;;;1.50;;
31384;SDS011;18016;49.788;8.742;2023-04-24T02:34:55;3.00;;;1.50;;
31384;SDS011;18016;49.788;8.742;2023-04-24T02:37:21;4.07;;;1.27;;
31384;SDS011;18016;49.788;8.742;2023-04-24T02:39:46;2.22;;;1.40;;
31384;SDS011;18016;49.788;8.742;2023-04-24T02:42:11;3.58;;;1.45;;
31384;SDS011;18016;49.788;8.742;2023-04-24T02:44:36;3.87;;;1.47;;
31384;SDS011;18016;49.788;8.742;2023-04-24T02:47:01;5.57;;;1.50;;
31384;SDS011;18016;49.788;8.742;2023-04-24T02:49:27;3.53;;;1.80;;
31384;SDS011;18016;49.788;8.742;2023-04-24T02:51:52;4.33;;;1.40;;
31384;SDS011;18016;49.788;8.742;2023-04-24T02:54:17;2.40;;;1.50;;
31384;SDS011;18016;49.788;8.742;2023-04-24T02:56:42;2.23;;;1.37;;
31384;SDS011;18016;49.788;8.742;2023-04-24T02:59:08;1.52;;;1.42;;
31384;SDS011;18016;49.788;8.742;2023-04-24T03:01:34;3.47;;;1.80;;
31384;SDS011;18016;49.788;8.742;2023-04-24T03:03:59;1.87;;;1.63;;
31384;SDS011;18016;49.788;8.742;2023-04-24T03:06:24;3.10;;;1.80;;
31384;SDS011;18016;49.788;8.742;2023-04-24T03:08:49;2.22;;;1.88;;
31384;SDS011;18016;49.788;8.742;2023-04-24T03:11:15;2.17;;;1.70;;
31384;SDS011;18016;49.788;8.742;2023-04-24T03:13:40;3.00;;;1.43;;
31384;SDS011;18016;49.788;8.742;2023-04-24T03:16:05;1.30;;;1.20;;
31384;SDS011;18016;49.788;8.742;2023-04-24T03:18:30;3.35;;;1.60;;
31384;SDS011;18016;49.788;8.742;2023-04-24T03:20:56;3.33;;;1.70;;
31384;SDS011;18016;49.788;8.742;2023-04-24T03:23:21;3.10;;;1.60;;
31384;SDS011;18016;49.788;8.742;2023-04-24T03:25:46;2.05;;;1.70;;
31384;SDS011;18016;49.788;8.742;2023-04-24T03:28:13;2.78;;;1.60;;
31384;SDS011;18016;49.788;8.742;2023-04-24T03:30:38;3.73;;;1.90;;
31384;SDS011;18016;49.788;8.742;2023-04-24T03:33:03;5.07;;;2.20;;
31384;SDS011;18016;49.788;8.742;2023-04-24T03:35:29;3.85;;;2.25;;
31384;SDS011;18016;49.788;8.742;2023-04-24T03:37:54;3.63;;;2.00;;
31384;SDS011;18016;49.788;8.742;2023-04-24T03:40:20;2.35;;;1.65;;
31384;SDS011;18016;49.788;8.742;2023-04-24T03:42:45;3.08;;;1.98;;
31384;SDS011;18016;49.788;8.742;2023-04-24T03:45:10;4.30;;;1.80;;
31384;SDS011;18016;49.788;8.742;2023-04-24T03:47:36;4.35;;;1.80;;
31384;SDS011;18016;49.788;8.742;2023-04-24T03:50:01;1.63;;;1.50;;
31384;SDS011;18016;49.788;8.742;2023-04-24T03:52:26;4.75;;;1.92;;
31384;SDS011;18016;49.788;8.742;2023-04-24T03:54:52;3.70;;;2.05;;
31384;SDS011;18016;49.788;8.742;2023-04-24T03:57:17;2.85;;;1.80;;
31384;SDS011;18016;49.788;8.742;2023-04-24T03:59:42;2.33;;;1.70;;
31384;SDS011;18016;49.788;8.742;2023-04-24T04:02:07;3.50;;;2.00;;
31384;SDS011;18016;49.788;8.742;2023-04-24T04:04:33;6.25;;;1.70;;
31384;SDS011;18016;49.788;8.742;2023-04-24T04:06:58;3.80;;;1.80;;
31384;SDS011;18016;49.788;8.742;2023-04-24T04:09:26;2.70;;;2.03;;
31384;SDS011;18016;49.788;8.742;2023-04-24T04:11:51;1.95;;;1.83;;
31384;SDS011;18016;49.788;8.742;2023-04-24T04:14:16;3.10;;;2.43;;
31384;SDS011;18016;49.788;8.742;2023-04-24T04:16:41;3.93;;;2.43;;
31384;SDS011;18016;49.788;8.742;2023-04-24T04:19:07;3.45;;;2.40;;
31384;SDS011;18016;49.788;8.742;2023-04-24T04:21:32;6.60;;;2.95;;
31384;SDS011;18016;49.788;8.742;2023-04-24T04:23:57;3.50;;;2.28;;
31384;SDS011;18016;49.788;8.742;2023-04-24T04:26:22;3.53;;;2.70;;
31384;SDS011;18016;49.788;8.742;2023-04-24T04:28:50;4.85;;;2.90;;
31384;SDS011;18016;49.788;8.742;2023-04-24T04:31:15;3.15;;;2.70;;
31384;SDS011;18016;49.788;8.742;2023-04-24T04:33:40;3.78;;;2.65;;
31384;SDS011;18016;49.788;8.742;2023-04-24T04:36:06;5.07;;;3.10;;
31384;SDS011;18016;49.788;8.742;2023-04-24T04:38:31;3.85;;;3.08;;
31384;SDS011;18016;49.788;8.742;2023-04-24T04:40:56;3.45;;;3.08;;
31384;SDS011;18016;49.788;8.742;2023-04-24T04:43:23;5.55;;;3.22;;
31384;SDS011;18016;49.788;8.742;2023-04-24T04:45:49;3.97;;;3.55;;
31384;SDS011;18016;49.788;8.742;2023-04-24T04:48:14;4.00;;;3.00;;
31384;SDS011;18016;49.788;8.742;2023-04-24T04:50:42;3.65;;;3.20;;
31384;SDS011;18016;49.788;8.742;2023-04-24T04:53:07;4.50;;;3.47;;
31384;SDS011;18016;49.788;8.742;2023-04-24T04:55:32;8.10;;;3.90;;
31384;SDS011;18016;49.788;8.742;2023-04-24T04:57:58;9.30;;;4.83;;
31384;SDS011;18016;49.788;8.742;2023-04-24T05:00:23;3.88;;;3.17;;
31384;SDS011;18016;49.788;8.742;2023-04-24T05:02:52;6.78;;;3.65;;
31384;SDS011;18016;49.788;8.742;2023-04-24T05:05:17;6.88;;;3.60;;
31384;SDS011;18016;49.788;8.742;2023-04-24T05:07:43;3.70;;;3.40;;
31384;SDS011;18016;49.788;8.742;2023-04-24T05:10:08;5.40;;;3.60;;
31384;SDS011;18016;49.788;8.742;2023-04-24T05:12:34;7.95;;;3.53;;
31384;SDS011;18016;49.788;8.742;2023-04-24T05:14:59;4.20;;;3.55;;
31384;SDS011;18016;49.788;8.742;2023-04-24T05:17:24;4.93;;;3.63;;
31384;SDS011;18016;49.788;8.742;2023-04-24T05:19:50;3.90;;;3.50;;
31384;SDS011;18016;49.788;8.742;2023-04-24T05:22:16;8.18;;;4.10;;
31384;SDS011;18016;49.788;8.742;2023-04-24T05:24:43;3.60;;;3.30;;
31384;SDS011;18016;49.788;8.742;2023-04-24T05:27:08;4.28;;;3.88;;
31384;SDS011;18016;49.788;8.742;2023-04-24T05:29:33;4.07;;;3.77;;
31384;SDS011;18016;49.788;8.742;2023-04-24T05:31:59;5.33;;;4.10;;
31384;SDS011;18016;49.788;8.742;2023-04-24T05:34:25;9.02;;;6.88;;
31384;SDS011;18016;49.788;8.742;2023-04-24T05:36:50;5.47;;;4.57;;
31384;SDS011;18016;49.788;8.742;2023-04-24T05:39:16;5.50;;;3.88;;
31384;SDS011;18016;49.788;8.742;2023-04-24T05:41:41;5.82;;;4.45;;
31384;SDS011;18016;49.788;8.742;2023-04-24T05:44:06;4.85;;;4.35;;
31384;SDS011;18016;49.788;8.742;2023-04-24T05:46:31;8.30;;;4.43;;
31384;SDS011;18016;49.788;8.742;2023-04-24T05:48:57;6.57;;;4.00;;
31384;SDS011;18016;49.788;8.742;2023-04-24T05:51:22;4.15;;;3.72;;
31384;SDS011;18016;49.788;8.742;2023-04-24T05:53:47;5.63;;;4.50;;
31384;SDS011;18016;49.788;8.742;2023-04-24T05:56:13;6.13;;;4.00;;
31384;SDS011;18016;49.788;8.742;2023-04-24T05:58:38;4.97;;;3.72;;
31384;SDS011;18016;49.788;8.742;2023-04-24T06:01:04;5.90;;;4.15;;
31384;SDS011;18016;49.788;8.742;2023-04-24T06:03:29;6.82;;;3.70;;
31384;SDS011;18016;49.788;8.742;2023-04-24T06:05:54;4.60;;;3.73;;
31384;SDS011;18016;49.788;8.742;2023-04-24T06:08:20;5.63;;;3.90;;
31384;SDS011;18016;49.788;8.742;2023-04-24T06:10:45;7.10;;;3.97;;
31384;SDS011;18016;49.788;8.742;2023-04-24T06:13:10;6.32;;;3.83;;
31384;SDS011;18016;49.788;8.742;2023-04-24T06:15:36;10.75;;;4.75;;
31384;SDS011;18016;49.788;8.742;2023-04-24T06:18:01;4.70;;;3.70;;
31384;SDS011;18016;49.788;8.742;2023-04-24T06:20:26;6.07;;;3.70;;
31384;SDS011;18016;49.788;8.742;2023-04-24T06:22:52;6.70;;;4.57;;
31384;SDS011;18016;49.788;8.742;2023-04-24T06:25:17;4.55;;;3.72;;
31384;SDS011;18016;49.788;8.742;2023-04-24T06:27:43;7.88;;;6.45;;
31384;SDS011;18016;49.788;8.742;2023-04-24T06:30:08;6.32;;;5.13;;
31384;SDS011;18016;49.788;8.742;2023-04-24T06:32:33;7.30;;;5.25;;
31384;SDS011;18016;49.788;8.742;2023-04-24T06:34:59;9.85;;;7.35;;
31384;SDS011;18016;49.788;8.742;2023-04-24T06:37:24;5.47;;;4.85;;
31384;SDS011;18016;49.788;8.742;2023-04-24T06:39:49;6.82;;;5.72;;
31384;SDS011;18016;49.788;8.742;2023-04-24T06:42:14;6.83;;;5.40;;
31384;SDS011;18016;49.788;8.742;2023-04-24T06:44:39;10.25;;;5.30;;
31384;SDS011;18016;49.788;8.742;2023-04-24T06:47:08;7.18;;;5.45;;
31384;SDS011;18016;49.788;8.742;2023-04-24T06:49:34;7.85;;;5.43;;
31384;SDS011;18016;49.788;8.742;2023-04-24T06:51:59;9.93;;;7.32;;
31384;SDS011;18016;49.788;8.742;2023-04-24T06:54:24;9.73;;;6.67;;
31384;SDS011;18016;49.788;8.742;2023-04-24T06:56:50;8.55;;;6.63;;
31384;SDS011;18016;49.788;8.742;2023-04-24T06:59:16;12.90;;;8.38;;
31384;SDS011;18016;49.788;8.742;2023-04-24T07:01:41;12.03;;;6.60;;
31384;SDS011;18016;49.788;8.742;2023-04-24T07:04:06;9.57;;;6.07;;
31384;SDS011;18016;49.788;8.742;2023-04-24T07:06:31;8.00;;;6.43;;
31384;SDS011;18016;49.788;8.742;2023-04-24T07:08:57;7.40;;;6.40;;
31384;SDS011;18016;49.788;8.742;2023-04-24T07:11:23;10.40;;;6.47;;
31384;SDS011;18016;49.788;8.742;2023-04-24T07:13:48;7.88;;;6.07;;
31384;SDS011;18016;49.788;8.742;2023-04-24T07:16:13;9.70;;;6.97;;
31384;SDS011;18016;49.788;8.742;2023-04-24T07:18:39;8.15;;;5.90;;
31384;SDS011;18016;49.788;8.742;2023-04-24T07:21:04;10.05;;;6.25;;
31384;SDS011;18016;49.788;8.742;2023-04-24T07:23:30;11.68;;;6.13;;
31384;SDS011;18016;49.788;8.742;2023-04-24T07:25:56;7.57;;;5.65;;
31384;SDS011;18016;49.788;8.742;2023-04-24T07:28:21;7.47;;;5.33;;
31384;SDS011;18016;49.788;8.742;2023-04-24T07:30:46;7.00;;;5.50;;
31384;SDS011;18016;49.788;8.742;2023-04-24T07:33:11;6.50;;;4.63;;
31384;SDS011;18016;49.788;8.742;2023-04-24T07:35:38;7.63;;;4.30;;
31384;SDS011;18016;49.788;8.742;2023-04-24T07:38:03;7.32;;;4.82;;
31384;SDS011;18016;49.788;8.742;2023-04-24T07:40:28;5.67;;;4.30;;
31384;SDS011;18016;49.788;8.742;2023-04-24T07:42:53;7.20;;;4.00;;
31384;SDS011;18016;49.788;8.742;2023-04-24T07:45:19;8.27;;;4.13;;
31384;SDS011;18016;49.788;8.742;2023-04-24T07:47:44;5.88;;;3.90;;
31384;SDS011;18016;49.788;8.742;2023-04-24T07:50:10;5.90;;;3.90;;
31384;SDS011;18016;49.788;8.742;2023-04-24T07:52:36;5.53;;;3.92;;
31384;SDS011;18016;49.788;8.742;2023-04-24T07:55:01;6.55;;;3.88;;
31384;SDS011;18016;49.788;8.742;2023-04-24T07:57:27;5.32;;;3.67;;
31384;SDS011;18016;49.788;8.742;2023-04-24T07:59:52;4.37;;;3.63;;
31384;SDS011;18016;49.788;8.742;2023-04-24T08:02:17;4.20;;;3.80;;
31384;SDS011;18016;49.788;8.742;2023-04-24T08:04:43;6.77;;;4.47;;
31384;SDS011;18016;49.788;8.742;2023-04-24T08:07:08;9.35;;;4.32;;
31384;SDS011;18016;49.788;8.742;2023-04-24T08:09:33;5.15;;;4.50;;
31384;SDS011;18016;49.788;8.742;2023-04-24T08:11:58;6.88;;;4.22;;
31384;SDS011;18016;49.788;8.742;2023-04-24T08:14:24;7.03;;;4.60;;
31384;SDS011;18016;49.788;8.742;2023-04-24T08:16:49;7.47;;;4.33;;
31384;SDS011;18016;49.788;8.742;2023-04-24T08:19:14;6.00;;;3.70;;
31384;SDS011;18016;49.788;8.742;2023-04-24T08:21:39;4.00;;;3.60;;
31384;SDS011;18016;49.788;8.742;2023-04-24T08:24:04;4.33;;;3.00;;
31384;SDS011;18016;49.788;8.742;2023-04-24T08:26:32;5.32;;;3.97;;
31384;SDS011;18016;49.788;8.742;2023-04-24T08:28:57;5.07;;;3.45;;
31384;SDS011;18016;49.788;8.742;2023-04-24T08:31:22;4.53;;;2.33;;
31384;SDS011;18016;49.788;8.742;2023-04-24T08:33:49;6.65;;;2.85;;
31384;SDS011;18016;49.788;8.742;2023-04-24T08:36:15;4.43;;;4.03;;
31384;SDS011;18016;49.788;8.742;2023-04-24T08:38:40;3.13;;;2.83;;
31384;SDS011;18016;49.788;8.742;2023-04-24T08:41:05;3.40;;;2.63;;
31384;SDS011;18016;49.788;8.742;2023-04-24T08:43:32;3.55;;;2.50;;
31384;SDS011;18016;49.788;8.742;2023-04-24T08:45:58;4.97;;;2.80;;
31384;SDS011;18016;49.788;8.742;2023-04-24T08:48:24;6.88;;;4.53;;
31384;SDS011;18016;49.788;8.742;2023-04-24T08:50:50;4.93;;;4.53;;
31384;SDS011;18016;49.788;8.742;2023-04-24T08:53:15;9.45;;;7.07;;
31384;SDS011;18016;49.788;8.742;2023-04-24T08:55:41;5.03;;;3.55;;
31384;SDS011;18016;49.788;8.742;2023-04-24T08:58:08;5.25;;;3.72;;
31384;SDS011;18016;49.788;8.742;2023-04-24T09:00:33;5.17;;;3.73;;
31384;SDS011;18016;49.788;8.742;2023-04-24T09:02:59;4.72;;;4.22;;
31384;SDS011;18016;49.788;8.742;2023-04-24T09:05:25;8.65;;;3.20;;
31384;SDS011;18016;49.788;8.742;2023-04-24T09:07:55;4.25;;;3.60;;
31384;SDS011;18016;49.788;8.742;2023-04-24T09:10:21;5.88;;;4.82;;
31384;SDS011;18016;49.788;8.742;2023-04-24T09:12:46;5.80;;;3.08;;
31384;SDS011;18016;49.788;8.742;2023-04-24T09:15:12;5.00;;;4.50;;
31384;SDS011;18016;49.788;8.742;2023-04-24T09:17:37;5.63;;;4.18;;
31384;SDS011;18016;49.788;8.742;2023-04-24T09:20:03;4.90;;;4.25;;
31384;SDS011;18016;49.788;8.742;2023-04-24T09:22:29;6.75;;;4.68;;
31384;SDS011;18016;49.788;8.742;2023-04-24T09:25:05;7.97;;;5.65;;
31384;SDS011;18016;49.788;8.742;2023-04-24T09:27:31;8.35;;;6.20;;
31384;SDS011;18016;49.788;8.742;2023-04-24T09:29:57;7.25;;;5.75;;
31384;SDS011;18016;49.788;8.742;2023-04-24T09:32:22;5.40;;;4.90;;
31384;SDS011;18016;49.788;8.742;2023-04-24T09:34:49;6.10;;;4.03;;
31384;SDS011;18016;49.788;8.742;2023-04-24T09:37:27;4.70;;;4.30;;
31384;SDS011;18016;49.788;8.742;2023-04-24T09:42:37;9.80;;;4.82;;
31384;SDS011;18016;49.788;8.742;2023-04-24T09:45:02;5.30;;;4.40;;
31384;SDS011;18016;49.788;8.742;2023-04-24T09:47:27;7.70;;;4.47;;
31384;SDS011;18016;49.788;8.742;2023-04-24T09:49:54;7.47;;;4.73;;
31384;SDS011;18016;49.788;8.742;2023-04-24T09:52:22;5.70;;;5.10;;
31384;SDS011;18016;49.788;8.742;2023-04-24T09:54:52;8.73;;;5.43;;
31384;SDS011;18016;49.788;8.742;2023-04-24T09:57:17;6.93;;;4.20;;
31384;SDS011;18016;49.788;8.742;2023-04-24T09:59:42;5.50;;;4.07;;
31384;SDS011;18016;49.788;8.742;2023-04-24T10:02:17;9.10;;;5.72;;
31384;SDS011;18016;49.788;8.742;2023-04-24T10:04:53;32.47;;;18.65;;
31384;SDS011;18016;49.788;8.742;2023-04-24T10:07:18;12.82;;;7.10;;
31384;SDS011;18016;49.788;8.742;2023-04-24T10:09:44;15.85;;;7.95;;
31384;SDS011;18016;49.788;8.742;2023-04-24T10:12:09;20.30;;;9.95;;
31384;SDS011;18016;49.788;8.742;2023-04-24T10:14:35;18.10;;;7.20;;
31384;SDS011;18016;49.788;8.742;2023-04-24T10:17:01;11.75;;;4.65;;
31384;SDS011;18016;49.788;8.742;2023-04-24T10:19:26;8.07;;;5.18;;
31384;SDS011;18016;49.788;8.742;2023-04-24T10:21:51;3.75;;;3.10;;
31384;SDS011;18016;49.788;8.742;2023-04-24T10:24:17;3.50;;;3.20;;
31384;SDS011;18016;49.788;8.742;2023-04-24T10:26:43;3.20;;;2.85;;
31384;SDS011;18016;49.788;8.742;2023-04-24T10:29:10;3.60;;;2.30;;
31384;SDS011;18016;49.788;8.742;2023-04-24T10:31:37;6.45;;;2.45;;
31384;SDS011;18016;49.788;8.742;2023-04-24T10:34:03;3.53;;;2.30;;
31384;SDS011;18016;49.788;8.742;2023-04-24T10:36:29;3.15;;;2.47;;
31384;SDS011;18016;49.788;8.742;2023-04-24T10:38:57;3.00;;;2.70;;
31384;SDS011;18016;49.788;8.742;2023-04-24T10:41:25;3.75;;;3.05;;
31384;SDS011;18016;49.788;8.742;2023-04-24T10:44:09;3.42;;;2.67;;
31384;SDS011;18016;49.788;8.742;2023-04-24T10:46:35;3.55;;;2.35;;
31384;SDS011;18016;49.788;8.742;2023-04-24T10:49:03;2.78;;;2.50;;
31384;SDS011;18016;49.788;8.742;2023-04-24T10:51:50;3.20;;;2.50;;
31384;SDS011;18016;49.788;8.742;2023-04-24T10:57:40;4.15;;;3.13;;
31384;SDS011;18016;49.788;8.742;2023-04-24T10:59:50;4.90;;;2.90;;
31384;SDS011;18016;49.788;8.742;2023-04-24T11:02:15;3.75;;;3.42;;
31384;SDS011;18016;49.788;8.742;2023-04-24T11:04:41;13.80;;;8.93;;
31384;SDS011;18016;49.788;8.742;2023-04-24T11:07:08;13.23;;;8.40;;
31384;SDS011;18016;49.788;8.742;2023-04-24T11:09:33;11.38;;;5.45;;
31384;SDS011;18016;49.788;8.742;2023-04-24T11:12:08;6.13;;;5.35;;
31384;SDS011;18016;49.788;8.742;2023-04-24T11:19:59;3.77;;;3.00;;
31384;SDS011;18016;49.788;8.742;2023-04-24T11:22:25;6.32;;;4.93;;
31384;SDS011;18016;49.788;8.742;2023-04-24T11:24:53;9.18;;;8.27;;
31384;SDS011;18016;49.788;8.742;2023-04-24T11:27:19;5.57;;;4.97;;
31384;SDS011;18016;49.788;8.742;2023-04-24T11:32:29;7.63;;;5.05;;
31384;SDS011;18016;49.788;8.742;2023-04-24T11:34:55;5.07;;;4.57;;
31384;SDS011;18016;49.788;8.742;2023-04-24T11:37:21;10.80;;;5.43;;
31384;SDS011;18016;49.788;8.742;2023-04-24T11:39:47;6.32;;;4.10;;
31384;SDS011;18016;49.788;8.742;2023-04-24T11:42:15;7.78;;;4.70;;
31384;SDS011;18016;49.788;8.742;2023-04-24T11:44:41;7.95;;;5.03;;
31384;SDS011;18016;49.788;8.742;2023-04-24T11:47:06;8.98;;;5.25;;
31384;SDS011;18016;49.788;8.742;2023-04-24T11:49:37;11.27;;;6.93;;
31384;SDS011;18016;49.788;8.742;2023-04-24T11:52:03;5.28;;;3.80;;
31384;SDS011;18016;49.788;8.742;2023-04-24T11:54:28;5.50;;;4.20;;
31384;SDS011;18016;49.788;8.742;2023-04-24T11:56:55;5.03;;;3.15;;
31384;SDS011;18016;49.788;8.742;2023-04-24T11:59:21;5.82;;;4.10;;
31384;SDS011;18016;49.788;8.742;2023-04-24T12:01:46;5.35;;;4.10;;
31384;SDS011;18016;49.788;8.742;2023-04-24T12:04:12;8.00;;;3.70;;
31384;SDS011;18016;49.788;8.742;2023-04-24T12:06:38;9.52;;;4.15;;
31384;SDS011;18016;49.788;8.742;2023-04-24T12:09:03;8.27;;;3.70;;
31384;SDS011;18016;49.788;8.742;2023-04-24T12:11:29;10.48;;;6.47;;
31384;SDS011;18016;49.788;8.742;2023-04-24T12:13:54;4.30;;;3.83;;
31384;SDS011;18016;49.788;8.742;2023-04-24T12:16:19;9.45;;;6.50;;
31384;SDS011;18016;49.788;8.742;2023-04-24T12:18:45;8.38;;;4.80;;
31384;SDS011;18016;49.788;8.742;2023-04-24T12:21:20;5.93;;;4.20;;
31384;SDS011;18016;49.788;8.742;2023-04-24T12:23:46;7.90;;;4.45;;
31384;SDS011;18016;49.788;8.742;2023-04-24T12:26:12;13.10;;;4.78;;
31384;SDS011;18016;49.788;8.742;2023-04-24T12:28:38;13.07;;;8.43;;
31384;SDS011;18016;49.788;8.742;2023-04-24T12:31:03;9.10;;;6.88;;
31384;SDS011;18016;49.788;8.742;2023-04-24T12:33:32;9.00;;;6.30;;
31384;SDS011;18016;49.788;8.742;2023-04-24T12:35:57;6.75;;;4.13;;
31384;SDS011;18016;49.788;8.742;2023-04-24T12:38:23;7.03;;;5.05;;
31384;SDS011;18016;49.788;8.742;2023-04-24T12:41:07;7.45;;;5.28;;
31384;SDS011;18016;49.788;8.742;2023-04-24T12:43:32;8.43;;;5.88;;
31384;SDS011;18016;49.788;8.742;2023-04-24T12:45:58;7.75;;;5.32;;
31384;SDS011;18016;49.788;8.742;2023-04-24T12:48:24;7.53;;;6.10;;
31384;SDS011;18016;49.788;8.742;2023-04-24T12:50:49;9.57;;;5.27;;
31384;SDS011;18016;49.788;8.742;2023-04-24T12:53:14;7.50;;;5.03;;
31384;SDS011;18016;49.788;8.742;2023-04-24T12:55:40;9.82;;;5.60;;
31384;SDS011;18016;49.788;8.742;2023-04-24T12:58:05;6.30;;;5.10;;
31384;SDS011;18016;49.788;8.742;2023-04-24T13:00:31;5.70;;;4.57;;
31384;SDS011;18016;49.788;8.742;2023-04-24T13:02:56;8.43;;;5.05;;
31384;SDS011;18016;49.788;8.742;2023-04-24T13:05:21;8.17;;;4.80;;
31384;SDS011;18016;49.788;8.742;2023-04-24T13:07:46;9.73;;;4.80;;
31384;SDS011;18016;49.788;8.742;2023-04-24T13:10:11;6.07;;;5.13;;
31384;SDS011;18016;49.788;8.742;2023-04-24T13:12:38;5.85;;;4.32;;
31384;SDS011;18016;49.788;8.742;2023-04-24T13:15:03;6.30;;;4.75;;
31384;SDS011;18016;49.788;8.742;2023-04-24T13:17:29;13.02;;;8.77;;
31384;SDS011;18016;49.788;8.742;2023-04-24T13:19:54;7.15;;;4.85;;
31384;SDS011;18016;49.788;8.742;2023-04-24T13:22:19;6.10;;;4.10;;
31384;SDS011;18016;49.788;8.742;2023-04-24T13:24:45;5.05;;;4.13;;
31384;SDS011;18016;49.788;8.742;2023-04-24T13:27:10;5.28;;;3.78;;
31384;SDS011;18016;49.788;8.742;2023-04-24T13:29:36;8.02;;;3.85;;
31384;SDS011;18016;49.788;8.742;2023-04-24T13:32:01;4.03;;;3.63;;
31384;SDS011;18016;49.788;8.742;2023-04-24T13:34:27;6.30;;;3.20;;
31384;SDS011;18016;49.788;8.742;2023-04-24T13:36:53;9.38;;;4.68;;
31384;SDS011;18016;49.788;8.742;2023-04-24T13:39:18;6.65;;;4.88;;
31384;SDS011;18016;49.788;8.742;2023-04-24T13:41:44;6.32;;;4.40;;
31384;SDS011;18016;49.788;8.742;2023-04-24T13:44:10;8.75;;;5.30;;
31384;SDS011;18016;49.788;8.742;2023-04-24T13:46:35;12.07;;;6.50;;
31384;SDS011;18016;49.788;8.742;2023-04-24T13:49:01;8.70;;;5.30;;
31384;SDS011;18016;49.788;8.742;2023-04-24T13:51:27;8.18;;;5.97;;
31384;SDS011;18016;49.788;8.742;2023-04-24T13:53:52;11.68;;;4.68;;
31384;SDS011;18016;49.788;8.742;2023-04-24T13:56:18;7.38;;;4.43;;
31384;SDS011;18016;49.788;8.742;2023-04-24T13:58:43;7.60;;;4.28;;
31384;SDS011;18016;49.788;8.742;2023-04-24T14:01:08;6.70;;;4.83;;
31384;SDS011;18016;49.788;8.742;2023-04-24T14:03:33;12.47;;;6.90;;
31384;SDS011;18016;49.788;8.742;2023-04-24T14:05:58;5.77;;;4.53;;
31384;SDS011;18016;49.788;8.742;2023-04-24T14:08:24;10.63;;;4.93;;
31384;SDS011;18016;49.788;8.742;2023-04-24T14:10:50;12.43;;;7.07;;
31384;SDS011;18016;49.788;8.742;2023-04-24T14:13:15;9.93;;;6.18;;
31384;SDS011;18016;49.788;8.742;2023-04-24T14:15:40;7.22;;;4.25;;
31384;SDS011;18016;49.788;8.742;2023-04-24T14:18:06;16.77;;;9.00;;
31384;SDS011;18016;49.788;8.742;2023-04-24T14:20:31;5.73;;;3.97;;
31384;SDS011;18016;49.788;8.742;2023-04-24T14:22:56;5.20;;;3.70;;
31384;SDS011;18016;49.788;8.742;2023-04-24T14:25:24;9.07;;;4.45;;
31384;SDS011;18016;49.788;8.742;2023-04-24T14:27:49;7.03;;;4.20;;
31384;SDS011;18016;49.788;8.742;2023-04-24T14:30:14;6.90;;;4.37;;
31384;SDS011;18016;49.788;8.742;2023-04-24T14:32:40;8.00;;;5.55;;
31384;SDS011;18016;49.788;8.742;2023-04-24T14:35:06;6.30;;;4.13;;
31384;SDS011;18016;49.788;8.742;2023-04-24T14:37:31;10.93;;;4.53;;
31384;SDS011;18016;49.788;8.742;2023-04-24T14:39:57;10.35;;;5.65;;
31384;SDS011;18016;49.788;8.742;2023-04-24T14:42:22;5.20;;;4.37;;
31384;SDS011;18016;49.788;8.742;2023-04-24T14:44:47;5.93;;;3.87;;
31384;SDS011;18016;49.788;8.742;2023-04-24T14:47:12;5.07;;;3.57;;
31384;SDS011;18016;49.788;8.742;2023-04-24T14:49:37;5.20;;;3.80;;
31384;SDS011;18016;49.788;8.742;2023-04-24T14:52:03;8.47;;;4.17;;